createdAt,value
2023-05-22T00:01:06.708Z,76.57
2023-05-22T00:03:33.799Z,76.28
2023-05-22T00:06:00.541Z,76.31
2023-05-22T00:08:29.638Z,76.30
2023-05-22T00:10:56.536Z,76.11
2023-05-22T00:13:23.045Z,75.96
2023-05-22T00:15:49.600Z,76.88
2023-05-22T00:18:16.079Z,76.24
2023-05-22T00:20:42.585Z,76.22
2023-05-22T00:23:10.369Z,76.03
2023-05-22T00:25:37.557Z,76.16
2023-05-22T00:28:04.781Z,76.24
2023-05-22T00:30:31.786Z,76.37
2023-05-22T00:32:58.442Z,76.09
2023-05-22T00:35:25.123Z,76.27
2023-05-22T00:37:51.708Z,76.38
2023-05-22T00:40:18.346Z,76.61
2023-05-22T00:42:44.988Z,76.89
2023-05-22T00:45:12.039Z,76.89
2023-05-22T00:47:38.519Z,76.72
2023-05-22T00:50:06.514Z,76.70
2023-05-22T00:52:35.714Z,76.51
2023-05-22T00:55:03.862Z,76.69
2023-05-22T00:57:31.391Z,76.56
2023-05-22T00:59:58.731Z,76.67
2023-05-22T01:02:25.190Z,76.83
2023-05-22T01:04:52.855Z,77.07
2023-05-22T01:07:19.352Z,77.22
2023-05-22T01:09:45.880Z,77.12
2023-05-22T01:12:34.383Z,77.75
2023-05-22T01:15:26.190Z,77.32
2023-05-22T01:18:11.085Z,77.39
2023-05-22T01:20:48.789Z,77.44
2023-05-22T01:23:43.304Z,77.38
2023-05-22T01:26:43.538Z,77.41
2023-05-22T01:29:18.800Z,77.47
2023-05-22T01:31:48.525Z,77.57
2023-05-22T01:34:17.322Z,77.91
2023-05-22T01:36:47.035Z,78.51
2023-05-22T01:39:15.109Z,78.12
2023-05-22T01:41:42.265Z,78.62
2023-05-22T01:44:08.748Z,78.76
2023-05-22T01:46:35.237Z,78.87
2023-05-22T01:49:01.691Z,79.54
2023-05-22T01:51:57.498Z,79.60
2023-05-22T01:54:43.086Z,79.68
2023-05-22T01:57:18.527Z,79.60
2023-05-22T01:59:45.551Z,79.44
2023-05-22T02:02:15.124Z,78.80
2023-05-22T02:04:45.062Z,78.73
2023-05-22T02:07:13.803Z,78.78
2023-05-22T02:09:41.828Z,78.80
2023-05-22T02:12:08.828Z,78.69
2023-05-22T02:14:36.797Z,78.46
2023-05-22T02:17:03.356Z,78.78
2023-05-22T02:19:29.851Z,79.04
2023-05-22T02:21:56.385Z,78.99
2023-05-22T02:24:23.657Z,78.84
2023-05-22T02:26:50.144Z,78.52
2023-05-22T02:29:16.675Z,78.60
2023-05-22T02:31:43.346Z,78.42
2023-05-22T02:34:09.878Z,78.42
2023-05-22T02:36:37.293Z,78.20
2023-05-22T02:39:05.153Z,77.99
2023-05-22T02:41:31.803Z,78.13
2023-05-22T02:43:58.257Z,78.23
2023-05-22T02:46:24.722Z,78.01
2023-05-22T02:48:51.161Z,77.74
2023-05-22T02:51:17.704Z,77.80
2023-05-22T02:53:44.179Z,77.52
2023-05-22T02:56:12.042Z,77.71
2023-05-22T02:58:39.325Z,77.76
2023-05-22T03:01:09.079Z,77.64
2023-05-22T03:03:35.655Z,77.55
2023-05-22T03:06:04.218Z,77.60
2023-05-22T03:08:31.681Z,77.85
2023-05-22T03:10:59.850Z,77.81
2023-05-22T03:13:26.355Z,77.76
2023-05-22T03:15:53.001Z,77.75
2023-05-22T03:18:19.563Z,77.56
2023-05-22T03:20:46.106Z,77.46
2023-05-22T03:23:13.366Z,77.77
2023-05-22T03:25:39.850Z,77.65
2023-05-22T03:28:06.465Z,77.59
2023-05-22T03:30:33.601Z,77.43
2023-05-22T03:33:00.379Z,77.62
2023-05-22T03:35:26.833Z,77.37
2023-05-22T03:37:53.262Z,77.43
2023-05-22T03:40:19.823Z,77.56
2023-05-22T03:42:46.269Z,77.53
2023-05-22T03:45:12.853Z,77.33
2023-05-22T03:47:39.334Z,77.69
2023-05-22T03:50:06.120Z,77.52
2023-05-22T03:52:32.664Z,77.77
2023-05-22T03:54:59.147Z,77.87
2023-05-22T03:57:25.761Z,77.81
2023-05-22T03:59:52.201Z,77.49
2023-05-22T04:02:18.739Z,77.65
2023-05-22T04:04:48.062Z,77.74
2023-05-22T04:07:14.690Z,77.63
2023-05-22T04:09:41.452Z,78.22
2023-05-22T04:12:08.350Z,78.14
2023-05-22T04:14:34.815Z,77.95
2023-05-22T04:17:01.271Z,78.56
2023-05-22T04:19:28.213Z,78.49
2023-05-22T04:21:54.922Z,78.54
2023-05-22T04:24:23.088Z,78.63
2023-05-22T04:26:49.927Z,78.81
2023-05-22T04:29:16.549Z,78.72
2023-05-22T04:31:43.413Z,78.38
2023-05-22T04:34:15.767Z,78.64
2023-05-22T04:36:45.081Z,78.47
2023-05-22T04:39:11.782Z,78.62
2023-05-22T04:41:39.053Z,78.54
2023-05-22T04:44:05.641Z,78.71
2023-05-22T04:46:34.369Z,78.59
2023-05-22T04:49:02.003Z,78.76
2023-05-22T04:51:28.886Z,78.92
2023-05-22T04:53:55.797Z,78.85
2023-05-22T04:56:34.724Z,79.19
2023-05-22T04:59:04.729Z,79.62
2023-05-22T05:01:33.192Z,79.31
2023-05-22T05:04:00.584Z,79.36
2023-05-22T05:06:27.370Z,79.42
2023-05-22T05:08:54.129Z,79.64
2023-05-22T05:11:21.614Z,79.58
2023-05-22T05:13:48.158Z,79.61
2023-05-22T05:16:14.735Z,79.69
2023-05-22T05:18:41.263Z,79.58
2023-05-22T05:21:08.093Z,79.61
2023-05-22T05:23:34.505Z,79.64
2023-05-22T05:26:01.047Z,79.84
2023-05-22T05:28:27.482Z,79.76
2023-05-22T05:30:53.943Z,79.81
2023-05-22T05:33:20.386Z,79.50
2023-05-22T05:35:46.831Z,79.70
2023-05-22T05:38:13.296Z,79.82
2023-05-22T05:40:40.067Z,79.80
2023-05-22T05:43:09.219Z,80.26
2023-05-22T05:45:36.071Z,80.16
2023-05-22T05:48:02.566Z,80.11
2023-05-22T05:50:29.028Z,80.02
2023-05-22T05:52:55.543Z,80.20
2023-05-22T05:55:22.009Z,80.27
2023-05-22T05:57:48.464Z,80.33
2023-05-22T06:00:15.269Z,80.40
2023-05-22T06:02:42.237Z,80.54
2023-05-22T06:05:09.222Z,80.43
2023-05-22T06:07:39.806Z,80.27
2023-05-22T06:10:08.350Z,80.06
2023-05-22T06:12:34.800Z,80.04
2023-05-22T06:15:01.286Z,79.99
2023-05-22T06:17:27.894Z,79.83
2023-05-22T06:19:54.470Z,79.84
2023-05-22T06:22:21.125Z,79.72
2023-05-22T06:24:47.570Z,79.67
2023-05-22T06:27:14.679Z,79.68
2023-05-22T06:29:41.150Z,79.47
2023-05-22T06:32:07.955Z,79.17
2023-05-22T06:34:34.461Z,79.02
2023-05-22T06:37:00.948Z,79.06
2023-05-22T06:39:27.757Z,79.01
2023-05-22T06:41:55.179Z,78.76
2023-05-22T06:44:21.628Z,78.80
2023-05-22T06:46:48.057Z,78.87
2023-05-22T06:49:17.416Z,78.63
2023-05-22T06:51:43.983Z,78.65
2023-05-22T06:54:12.374Z,78.50
2023-05-22T06:56:38.885Z,78.12
2023-05-22T06:59:06.355Z,78.04
2023-05-22T07:01:33.301Z,77.85
2023-05-22T07:04:01.325Z,77.63
2023-05-22T07:06:28.204Z,77.40
2023-05-22T07:08:54.695Z,77.39
2023-05-22T07:11:21.142Z,77.23
2023-05-22T07:13:47.648Z,76.78
2023-05-22T07:16:14.802Z,76.36
2023-05-22T07:18:41.995Z,76.17
2023-05-22T07:21:08.492Z,76.00
2023-05-22T07:23:34.930Z,75.61
2023-05-22T07:26:01.378Z,75.36
2023-05-22T07:28:27.859Z,75.02
2023-05-22T07:30:54.341Z,74.33
2023-05-22T07:33:21.008Z,74.39
2023-05-22T07:35:47.519Z,74.06
2023-05-22T07:38:13.925Z,73.73
2023-05-22T07:40:40.586Z,73.77
2023-05-22T07:43:07.206Z,73.61
2023-05-22T07:45:33.687Z,73.34
2023-05-22T07:48:01.963Z,72.99
2023-05-22T07:50:30.427Z,72.72
2023-05-22T07:52:56.958Z,72.58
2023-05-22T07:55:23.444Z,72.51
2023-05-22T07:57:50.882Z,72.39
2023-05-22T08:00:17.918Z,72.25
2023-05-22T08:02:45.080Z,72.03
2023-05-22T08:05:11.940Z,71.60
2023-05-22T08:07:38.629Z,71.27
2023-05-22T08:10:12.965Z,71.22
2023-05-22T08:12:39.428Z,71.34
2023-05-22T08:15:06.640Z,71.16
2023-05-22T08:17:33.195Z,71.37
2023-05-22T08:19:59.789Z,71.28
2023-05-22T08:22:26.385Z,71.25
2023-05-22T08:24:52.812Z,70.91
2023-05-22T08:27:19.257Z,71.02
2023-05-22T08:29:45.805Z,70.60
2023-05-22T08:32:12.261Z,70.51
2023-05-22T08:34:40.296Z,70.65
2023-05-22T08:37:06.750Z,70.83
2023-05-22T08:39:33.186Z,70.67
2023-05-22T08:41:59.718Z,70.61
2023-05-22T08:44:26.296Z,70.31
2023-05-22T08:46:56.545Z,70.50
2023-05-22T08:49:24.419Z,69.82
2023-05-22T08:51:56.124Z,69.98
2023-05-22T08:54:26.006Z,69.50
2023-05-22T08:56:57.256Z,69.27
2023-05-22T08:59:24.845Z,69.40
2023-05-22T09:01:52.787Z,68.26
2023-05-22T09:04:23.611Z,68.12
2023-05-22T09:06:50.768Z,67.96
2023-05-22T09:09:17.911Z,67.07
2023-05-22T09:11:44.439Z,66.29
2023-05-22T09:14:11.647Z,65.31
2023-05-22T09:16:52.783Z,64.78
2023-05-22T09:19:19.289Z,64.92
2023-05-22T09:21:46.387Z,64.56
2023-05-22T09:24:13.004Z,64.53
2023-05-22T09:26:40.160Z,62.13
2023-05-22T09:29:07.449Z,62.41
2023-05-22T09:31:41.735Z,62.67
2023-05-22T09:34:10.208Z,62.02
2023-05-22T09:36:36.731Z,60.88
2023-05-22T09:39:04.723Z,59.86
2023-05-22T09:41:35.627Z,59.54
2023-05-22T09:44:02.456Z,59.94
2023-05-22T09:46:29.469Z,60.31
2023-05-22T09:48:56.088Z,61.13
2023-05-22T09:51:23.854Z,61.03
2023-05-22T09:53:51.292Z,60.67
2023-05-22T09:56:27.076Z,60.57
2023-05-22T09:59:01.848Z,60.16
2023-05-22T10:01:28.905Z,60.18
2023-05-22T10:03:57.170Z,59.39
2023-05-22T10:06:25.176Z,58.16
2023-05-22T10:08:57.644Z,58.29
2023-05-22T10:11:26.583Z,57.03
2023-05-22T10:13:53.793Z,56.96
2023-05-22T10:16:21.174Z,56.94
2023-05-22T10:18:49.116Z,56.74
2023-05-22T10:21:16.671Z,56.58
2023-05-22T10:23:44.233Z,56.74
2023-05-22T10:26:11.234Z,56.66
2023-05-22T10:28:51.064Z,56.51
2023-05-22T10:31:30.095Z,55.40
2023-05-22T10:34:01.576Z,55.02
2023-05-22T10:36:49.160Z,55.16
2023-05-22T10:39:54.363Z,55.82
2023-05-22T10:42:20.900Z,55.86
2023-05-22T10:44:48.560Z,56.28
2023-05-22T10:47:15.028Z,56.59
2023-05-22T10:49:45.474Z,56.49
2023-05-22T10:52:14.502Z,56.15
2023-05-22T10:54:45.780Z,55.52
2023-05-22T10:57:16.385Z,55.51
2023-05-22T10:59:43.821Z,55.52
2023-05-22T11:02:31.139Z,55.09
2023-05-22T11:05:22.787Z,54.50
2023-05-22T11:07:49.274Z,53.94
2023-05-22T11:10:26.117Z,53.46
2023-05-22T11:13:12.100Z,53.44
2023-05-22T11:15:45.330Z,53.50
2023-05-22T11:18:12.769Z,53.54
2023-05-22T11:20:40.083Z,53.04
2023-05-22T11:23:08.113Z,52.76
2023-05-22T11:25:36.603Z,52.48
2023-05-22T11:28:06.764Z,52.04
2023-05-22T11:30:34.373Z,52.28
2023-05-22T11:33:01.986Z,52.58
2023-05-22T11:35:28.959Z,52.33
2023-05-22T11:37:56.339Z,51.80
2023-05-22T11:40:26.776Z,51.74
2023-05-22T11:42:53.962Z,52.38
2023-05-22T11:45:21.346Z,52.07
2023-05-22T11:47:48.719Z,51.46
2023-05-22T11:50:22.733Z,51.30
2023-05-22T11:52:56.437Z,50.71
2023-05-22T11:55:23.262Z,50.53
2023-05-22T11:57:49.799Z,49.28
2023-05-22T12:00:17.142Z,48.79
2023-05-22T12:02:47.520Z,48.32
2023-05-22T12:05:15.858Z,47.82
2023-05-22T12:07:42.854Z,47.18
2023-05-22T12:10:09.672Z,47.62
2023-05-22T12:12:37.222Z,47.12
2023-05-22T12:15:07.303Z,47.52
2023-05-22T12:17:37.236Z,46.96
2023-05-22T12:20:05.178Z,45.43
2023-05-22T12:22:31.837Z,44.30
2023-05-22T12:24:58.303Z,43.54
2023-05-22T12:27:30.498Z,43.41
2023-05-22T12:29:58.796Z,44.02
2023-05-22T12:32:25.731Z,44.28
2023-05-22T12:34:52.358Z,43.31
2023-05-22T12:37:25.296Z,43.65
2023-05-22T12:39:56.779Z,44.87
2023-05-22T12:42:24.026Z,43.27
2023-05-22T12:44:53.160Z,43.38
2023-05-22T12:47:19.748Z,43.13
2023-05-22T12:49:46.230Z,42.60
2023-05-22T12:52:13.356Z,42.03
2023-05-22T12:54:39.965Z,41.94
2023-05-22T12:57:06.602Z,41.59
2023-05-22T12:59:33.845Z,41.98
2023-05-22T13:02:02.356Z,42.53
2023-05-22T13:04:29.638Z,41.86
2023-05-22T13:06:56.481Z,40.78
2023-05-22T13:09:23.037Z,40.47
2023-05-22T13:11:49.536Z,39.60
2023-05-22T13:14:16.168Z,39.21
2023-05-22T13:16:42.811Z,38.52
2023-05-22T13:19:09.450Z,38.90
2023-05-22T13:21:36.698Z,39.03
2023-05-22T13:24:04.343Z,39.39
2023-05-22T13:26:31.036Z,40.38
2023-05-22T13:28:57.499Z,40.78
2023-05-22T13:31:23.980Z,41.25
2023-05-22T13:33:50.710Z,41.54
2023-05-22T13:36:18.411Z,41.68
2023-05-22T13:38:44.839Z,42.02
2023-05-22T13:41:11.513Z,41.90
2023-05-22T13:43:37.956Z,42.33
2023-05-22T13:46:04.607Z,42.71
2023-05-22T13:48:31.158Z,42.42
2023-05-22T13:50:57.615Z,43.09
2023-05-22T13:53:24.073Z,43.30
2023-05-22T13:55:51.073Z,43.85
2023-05-22T13:58:17.540Z,43.62
2023-05-22T14:00:44.029Z,44.05
2023-05-22T14:03:11.691Z,44.56
2023-05-22T14:05:38.601Z,44.60
2023-05-22T14:08:05.315Z,45.62
2023-05-22T14:10:31.821Z,45.70
2023-05-22T14:12:58.341Z,45.20
2023-05-22T14:15:24.858Z,44.89
2023-05-22T14:17:51.301Z,45.73
2023-05-22T14:20:18.027Z,46.19
2023-05-22T14:22:56.602Z,46.78
2023-05-22T14:25:24.521Z,46.02
2023-05-22T14:27:51.004Z,45.38
2023-05-22T14:30:17.653Z,45.36
2023-05-22T14:32:44.302Z,45.73
2023-05-22T14:35:10.975Z,45.53
2023-05-22T14:37:37.461Z,45.72
2023-05-22T14:40:04.782Z,45.89
2023-05-22T14:42:31.414Z,45.86
2023-05-22T14:44:58.101Z,45.75
2023-05-22T14:47:24.545Z,46.18
2023-05-22T14:49:51.620Z,46.67
2023-05-22T14:52:18.140Z,46.70
2023-05-22T14:54:44.583Z,46.54
2023-05-22T14:57:10.993Z,47.30
2023-05-22T14:59:37.508Z,48.46
2023-05-22T15:02:04.027Z,48.87
2023-05-22T15:04:30.686Z,49.35
2023-05-22T15:06:57.161Z,49.81
2023-05-22T15:09:23.682Z,50.05
2023-05-22T15:11:51.064Z,51.34
2023-05-22T15:14:17.620Z,51.10
2023-05-22T15:16:44.346Z,51.20
2023-05-22T15:19:11.129Z,51.48
2023-05-22T15:21:37.737Z,51.25
2023-05-22T15:24:04.263Z,51.22
2023-05-22T15:26:30.686Z,51.73
2023-05-22T15:29:01.266Z,50.63
2023-05-22T15:31:28.749Z,50.11
2023-05-22T15:33:55.511Z,50.12
2023-05-22T15:36:22.171Z,49.96
2023-05-22T15:38:48.666Z,50.36
2023-05-22T15:41:15.219Z,50.09
2023-05-22T15:43:41.736Z,49.01
2023-05-22T15:46:08.577Z,48.69
2023-05-22T15:48:35.360Z,47.62
2023-05-22T15:51:01.992Z,46.95
2023-05-22T15:53:28.458Z,46.37
2023-05-22T15:55:54.948Z,45.89
2023-05-22T15:58:21.368Z,45.75
2023-05-22T16:00:47.804Z,44.66
2023-05-22T16:03:15.172Z,44.82
2023-05-22T16:05:42.124Z,43.89
2023-05-22T16:08:11.735Z,44.01
2023-05-22T16:10:41.386Z,44.21
2023-05-22T16:13:10.491Z,44.02
2023-05-22T16:15:39.545Z,44.14
2023-05-22T16:18:07.114Z,44.10
2023-05-22T16:20:34.396Z,44.57
2023-05-22T16:23:00.874Z,44.68
2023-05-22T16:25:27.350Z,44.51
2023-05-22T16:27:53.858Z,44.92
2023-05-22T16:30:21.224Z,45.34
2023-05-22T16:32:48.585Z,45.68
2023-05-22T16:35:15.998Z,46.04
2023-05-22T16:37:42.502Z,46.28
2023-05-22T16:40:09.466Z,47.05
2023-05-22T16:42:36.476Z,47.89
2023-05-22T16:45:04.007Z,48.40
2023-05-22T16:47:30.735Z,48.58
2023-05-22T16:49:57.185Z,49.22
2023-05-22T16:52:25.556Z,49.37
2023-05-22T16:54:52.716Z,49.46
2023-05-22T16:57:19.548Z,50.14
2023-05-22T16:59:46.265Z,50.55
2023-05-22T17:02:13.567Z,51.15
2023-05-22T17:04:41.038Z,51.36
2023-05-22T17:07:07.605Z,52.13
2023-05-22T17:09:34.178Z,52.27
2023-05-22T17:12:01.079Z,52.27
2023-05-22T17:14:27.725Z,52.58
2023-05-22T17:16:55.218Z,53.36
2023-05-22T17:19:21.756Z,53.32
2023-05-22T17:21:48.264Z,53.65
2023-05-22T17:24:15.005Z,53.14
2023-05-22T17:26:41.883Z,52.99
2023-05-22T17:29:08.863Z,52.72
2023-05-22T17:31:38.273Z,53.09
2023-05-22T17:34:06.017Z,52.75
2023-05-22T17:36:32.657Z,52.54
2023-05-22T17:38:59.558Z,52.42
2023-05-22T17:41:26.454Z,52.40
2023-05-22T17:43:54.645Z,51.62
2023-05-22T17:46:21.306Z,52.21
2023-05-22T17:48:47.788Z,52.57
2023-05-22T17:51:15.063Z,52.53
2023-05-22T17:53:41.553Z,52.54
2023-05-22T17:56:08.090Z,53.32
2023-05-22T17:58:34.584Z,53.91
2023-05-22T18:01:01.141Z,54.28
2023-05-22T18:03:27.749Z,55.08
2023-05-22T18:05:54.357Z,55.43
2023-05-22T18:08:21.380Z,56.22
2023-05-22T18:10:49.065Z,56.04
2023-05-22T18:13:15.550Z,56.89
2023-05-22T18:15:42.173Z,57.00
2023-05-22T18:18:10.687Z,57.18
2023-05-22T18:20:38.861Z,57.31
2023-05-22T18:23:05.861Z,57.06
2023-05-22T18:25:32.278Z,57.68
2023-05-22T18:27:58.746Z,57.74
2023-05-22T18:30:25.348Z,58.21
2023-05-22T18:32:52.021Z,58.68
2023-05-22T18:35:18.457Z,58.64
2023-05-22T18:37:45.096Z,59.17
2023-05-22T18:40:12.448Z,59.46
2023-05-22T18:42:39.042Z,59.16
2023-05-22T18:45:06.594Z,59.48
2023-05-22T18:47:33.104Z,59.87
2023-05-22T18:49:59.574Z,60.48
2023-05-22T18:52:26.016Z,60.49
2023-05-22T18:54:52.453Z,60.82
2023-05-22T18:57:18.884Z,60.83
2023-05-22T18:59:46.224Z,60.93
2023-05-22T19:02:12.767Z,60.93
2023-05-22T19:04:39.480Z,60.91
2023-05-22T19:07:05.914Z,61.13
2023-05-22T19:09:32.340Z,61.02
2023-05-22T19:11:58.817Z,61.27
2023-05-22T19:14:25.343Z,61.44
2023-05-22T19:16:51.907Z,61.68
2023-05-22T19:19:18.514Z,61.79
2023-05-22T19:21:44.983Z,61.84
2023-05-22T19:24:11.488Z,62.21
2023-05-22T19:26:37.949Z,62.42
2023-05-22T19:29:04.393Z,62.54
2023-05-22T19:31:31.156Z,62.54
2023-05-22T19:33:57.730Z,62.63
2023-05-22T19:36:24.230Z,62.69
2023-05-22T19:38:52.542Z,63.10
2023-05-22T19:41:20.144Z,63.37
2023-05-22T19:43:46.576Z,63.42
2023-05-22T19:46:13.051Z,63.99
2023-05-22T19:48:39.498Z,64.08
2023-05-22T19:51:06.987Z,63.97
2023-05-22T19:53:34.157Z,63.77
2023-05-22T19:56:03.995Z,63.80
2023-05-22T19:58:30.556Z,64.12
2023-05-22T20:00:57.041Z,63.87
2023-05-22T20:03:24.320Z,64.11
2023-05-22T20:05:52.827Z,65.05
2023-05-22T20:08:21.559Z,65.12
2023-05-22T20:10:48.290Z,65.66
2023-05-22T20:13:14.748Z,66.05
2023-05-22T20:15:41.438Z,66.41
2023-05-22T20:18:10.615Z,66.56
2023-05-22T20:20:37.096Z,66.80
2023-05-22T20:23:03.587Z,66.99
2023-05-22T20:25:30.147Z,67.07
2023-05-22T20:27:56.600Z,67.00
2023-05-22T20:30:23.114Z,67.37
2023-05-22T20:32:49.603Z,67.66
2023-05-22T20:35:20.107Z,67.57
2023-05-22T20:37:46.645Z,67.79
2023-05-22T20:40:13.468Z,67.59
2023-05-22T20:42:41.040Z,67.27
2023-05-22T20:45:08.729Z,66.94
2023-05-22T20:47:36.097Z,67.28
2023-05-22T20:50:02.657Z,67.12
2023-05-22T20:52:32.048Z,66.99
2023-05-22T20:54:58.471Z,67.42
2023-05-22T20:57:25.546Z,67.43
2023-05-22T20:59:55.093Z,67.15
2023-05-22T21:02:21.922Z,67.04
2023-05-22T21:04:48.397Z,67.04
2023-05-22T21:07:14.951Z,67.21
2023-05-22T21:09:41.723Z,65.98
2023-05-22T21:12:08.474Z,66.48
2023-05-22T21:14:35.077Z,67.02
2023-05-22T21:17:01.732Z,67.14
2023-05-22T21:19:28.220Z,66.86
2023-05-22T21:21:54.689Z,67.16
2023-05-22T21:24:21.825Z,67.52
2023-05-22T21:26:48.277Z,68.87
2023-05-22T21:29:14.712Z,68.83
2023-05-22T21:31:41.153Z,68.95
2023-05-22T21:34:08.364Z,69.20
2023-05-22T21:36:34.797Z,69.52
2023-05-22T21:39:01.329Z,69.56
2023-05-22T21:41:27.983Z,68.73
2023-05-22T21:43:54.416Z,68.92
2023-05-22T21:46:24.431Z,68.63
2023-05-22T21:48:51.117Z,68.97
2023-05-22T21:51:17.622Z,69.49
2023-05-22T21:53:44.066Z,69.80
2023-05-22T21:56:10.726Z,70.24
2023-05-22T21:58:37.226Z,70.65
2023-05-22T22:01:03.778Z,70.49
2023-05-22T22:03:30.478Z,70.71
2023-05-22T22:05:57.098Z,70.36
2023-05-22T22:08:23.592Z,70.76
2023-05-22T22:10:50.037Z,70.70
2023-05-22T22:13:16.574Z,70.81
2023-05-22T22:15:43.175Z,70.97
2023-05-22T22:18:09.876Z,71.07
2023-05-22T22:20:44.349Z,71.27
2023-05-22T22:23:12.033Z,71.48
2023-05-22T22:25:39.163Z,71.38
2023-05-22T22:28:06.154Z,71.54
2023-05-22T22:30:32.716Z,71.57
2023-05-22T22:32:59.561Z,71.38
2023-05-22T22:35:26.356Z,71.56
2023-05-22T22:37:52.854Z,71.82
2023-05-22T22:40:19.298Z,71.56
2023-05-22T22:42:45.774Z,71.08
2023-05-22T22:45:12.250Z,70.71
2023-05-22T22:47:39.276Z,70.82
2023-05-22T22:50:06.197Z,71.22
2023-05-22T22:52:32.615Z,71.14
2023-05-22T22:54:59.071Z,71.29
2023-05-22T22:57:25.697Z,71.55
2023-05-22T22:59:52.141Z,72.15
2023-05-22T23:02:18.578Z,71.83
2023-05-22T23:04:45.125Z,71.96
2023-05-22T23:07:11.740Z,71.59
2023-05-22T23:09:39.944Z,71.39
2023-05-22T23:12:06.684Z,71.68
2023-05-22T23:14:33.162Z,72.15
2023-05-22T23:16:59.580Z,71.88
2023-05-22T23:19:26.320Z,71.81
2023-05-22T23:21:53.569Z,72.50
2023-05-22T23:24:20.008Z,72.61
2023-05-22T23:26:46.436Z,72.37
2023-05-22T23:29:13.201Z,72.72
2023-05-22T23:31:40.421Z,72.92
2023-05-22T23:34:07.076Z,72.94
2023-05-22T23:36:33.696Z,72.97
2023-05-22T23:39:00.263Z,73.54
2023-05-22T23:41:27.497Z,73.49
2023-05-22T23:43:54.166Z,73.15
2023-05-22T23:46:21.303Z,73.08
2023-05-22T23:48:47.896Z,73.11
2023-05-22T23:51:15.222Z,73.07
2023-05-22T23:53:42.246Z,73.15
2023-05-22T23:56:09.298Z,73.04
2023-05-22T23:58:37.478Z,73.13
